Time;durP1;ratioP1;P1;durP2;ratioP2;P2;SDS_P1;SDS_P2;PMS_P1;PMS_P2;Temp;Humidity;BMP_temperature;BMP_pressure;BME280_temperature;BME280_humidity;BME280_pressure;Samples;Min_cycle;Max_cycle;Signal;HPM_P1;HPM_P2
2024/01/24 00:01:14;;;;;;;7.20;4.00;;;23.20;54.60;;;;;;222969;1266;23164;-58
2024/01/24 00:06:19;;;;;;;9.20;4.20;;;23.20;54.20;;;;;;222484;1267;22586;-58
2024/01/24 00:11:34;;;;;;;7.00;4.20;;;23.20;53.80;;;;;;222694;1266;25287;-57
2024/01/24 00:16:39;;;;;;;6.50;4.20;;;23.00;53.70;;;;;;222816;1266;25339;-57
2024/01/24 00:21:43;;;;;;;5.10;4.00;;;23.00;53.70;;;;;;226432;1265;24225;-57
2024/01/24 00:26:48;;;;;;;10.10;3.90;;;23.10;53.00;;;;;;222196;1264;25271;-57
2024/01/24 00:31:55;;;;;;;6.20;3.70;;;23.10;53.10;;;;;;222590;1266;24202;-58
2024/01/24 00:36:59;;;;;;;6.30;3.80;;;22.90;53.10;;;;;;222327;1266;24253;-58
2024/01/24 00:42:04;;;;;;;7.10;3.90;;;22.70;53.80;;;;;;222344;1267;25492;-59
2024/01/24 00:47:08;;;;;;;6.30;3.60;;;22.90;53.50;;;;;;222196;1267;22518;-56
2024/01/24 00:52:13;;;;;;;5.00;3.30;;;23.10;52.80;;;;;;222302;1267;24209;-56
2024/01/24 00:57:18;;;;;;;7.30;3.30;;;23.50;52.00;;;;;;220911;1270;22531;-58
2024/01/24 01:02:22;;;;;;;6.40;3.50;;;23.60;52.40;;;;;;221637;1271;23617;-57
2024/01/24 01:07:26;;;;;;;5.20;3.10;;;23.50;51.70;;;;;;221322;1267;24341;-55
2024/01/24 01:12:31;;;;;;;4.10;3.10;;;23.50;51.70;;;;;;221490;1268;25440;-58
2024/01/24 01:17:35;;;;;;;5.20;3.20;;;23.40;51.60;;;;;;222140;1264;24254;-56
2024/01/24 01:22:40;;;;;;;6.10;3.50;;;23.30;51.70;;;;;;222318;1254;22623;-59
2024/01/24 01:27:44;;;;;;;4.20;3.20;;;23.30;51.90;;;;;;222536;1253;24468;-57
2024/01/24 01:32:49;;;;;;;3.40;2.90;;;23.10;52.00;;;;;;224445;1246;24205;-56
2024/01/24 01:37:54;;;;;;;4.20;2.90;;;23.30;51.60;;;;;;222637;1261;22573;-57
2024/01/24 01:42:58;;;;;;;4.40;3.10;;;23.20;52.00;;;;;;222454;1260;24851;-57
2024/01/24 01:48:03;;;;;;;5.90;2.90;;;23.00;51.90;;;;;;222179;1264;22534;-58
2024/01/24 01:53:08;;;;;;;5.60;3.20;;;22.80;52.20;;;;;;222870;1262;22640;-58
2024/01/24 01:58:12;;;;;;;3.80;3.00;;;22.80;52.00;;;;;;222791;1264;24157;-58
2024/01/24 02:03:17;;;;;;;4.40;3.30;;;22.70;51.90;;;;;;222891;1261;22629;-58
2024/01/24 02:08:21;;;;;;;5.20;2.90;;;22.70;51.50;;;;;;222730;1266;24190;-58
2024/01/24 02:13:32;;;;;;;5.60;3.20;;;22.60;51.70;;;;;;222611;1266;22662;-57
2024/01/24 02:18:37;;;;;;;4.30;3.20;;;22.60;51.90;;;;;;222275;1260;22672;-57
2024/01/24 02:23:43;;;;;;;3.40;2.80;;;22.80;51.50;;;;;;222443;1264;24225;-59
2024/01/24 02:28:47;;;;;;;4.50;3.00;;;23.00;50.90;;;;;;222518;1261;22526;-59
2024/01/24 02:33:52;;;;;;;5.50;2.70;;;23.30;50.20;;;;;;222344;1256;22544;-56
2024/01/24 02:38:57;;;;;;;4.70;2.80;;;23.40;49.90;;;;;;222398;1267;25325;-58
2024/01/24 02:44:02;;;;;;;4.60;2.60;;;23.30;49.80;;;;;;222116;1267;22541;-57
2024/01/24 02:49:06;;;;;;;3.00;2.60;;;23.30;49.80;;;;;;222576;1264;25503;-59
2024/01/24 02:54:10;;;;;;;3.60;2.60;;;23.30;49.80;;;;;;222787;1263;22829;-58
2024/01/24 02:59:15;;;;;;;2.60;2.30;;;23.20;49.50;;;;;;222299;1264;22907;-57
2024/01/24 03:04:20;;;;;;;4.40;2.40;;;23.10;50.30;;;;;;222412;1261;24231;-58
2024/01/24 03:09:24;;;;;;;3.50;2.60;;;23.00;50.40;;;;;;222883;1263;24371;-59
2024/01/24 03:14:31;;;;;;;3.00;2.20;;;22.90;50.50;;;;;;222228;1263;22521;-58
2024/01/24 03:19:36;;;;;;;4.70;2.80;;;22.90;50.50;;;;;;222452;1266;22593;-59
2024/01/24 03:24:40;;;;;;;3.50;2.70;;;22.80;50.30;;;;;;221520;1270;24134;-57
2024/01/24 03:29:45;;;;;;;3.20;2.30;;;22.70;50.70;;;;;;221437;1267;22571;-57
2024/01/24 03:34:57;;;;;;;4.30;2.40;;;22.70;50.80;;;;;;221715;1271;22495;-58
2024/01/24 03:40:01;;;;;;;;;;;22.70;51.00;;;;;;221638;1268;22557;-58
2024/01/24 03:45:06;;;;;;;3.00;2.40;;;22.50;50.50;;;;;;221241;1264;22696;-57
2024/01/24 03:50:10;;;;;;;3.30;2.20;;;22.50;50.60;;;;;;222347;1244;25515;-58
2024/01/24 03:55:15;;;;;;;3.30;2.20;;;22.70;50.30;;;;;;222521;1264;22521;-59
2024/01/24 04:00:28;;;;;;;2.90;2.10;;;22.90;50.40;;;;;;222975;1254;24209;-58
2024/01/24 04:05:33;;;;;;;3.60;2.60;;;23.10;49.80;;;;;;222697;1252;23428;-58
2024/01/24 04:10:38;;;;;;;2.90;2.00;;;23.20;49.20;;;;;;222534;1264;26291;-58
2024/01/24 04:15:42;;;;;;;3.60;2.40;;;23.30;49.10;;;;;;222887;1260;23899;-59
2024/01/24 04:20:48;;;;;;;2.10;1.80;;;23.20;49.10;;;;;;222450;1261;22549;-58
2024/01/24 04:26:02;;;;;;;4.60;2.40;;;23.10;49.30;;;;;;222997;1260;22540;-58
2024/01/24 04:31:07;;;;;;;2.60;2.40;;;23.10;50.10;;;;;;222727;1266;23867;-58
2024/01/24 04:36:11;;;;;;;4.00;2.30;;;22.90;49.50;;;;;;222272;1264;24196;-59
2024/01/24 04:41:21;;;;;;;3.20;2.10;;;22.90;49.70;;;;;;222938;1264;22616;-58
2024/01/24 04:46:25;;;;;;;3.10;1.90;;;22.70;50.10;;;;;;222535;1267;22637;-58
2024/01/24 04:51:29;;;;;;;3.00;1.90;;;22.70;50.60;;;;;;222596;1262;22518;-57
2024/01/24 04:56:34;;;;;;;2.60;2.20;;;22.70;50.20;;;;;;222686;1264;22717;-59
2024/01/24 05:01:39;;;;;;;1.90;1.80;;;22.60;50.60;;;;;;222769;1264;22717;-57
2024/01/24 05:06:43;;;;;;;2.60;2.00;;;22.60;49.90;;;;;;222578;1253;22770;-57
2024/01/24 05:11:48;;;;;;;2.90;1.80;;;22.40;50.10;;;;;;222665;1261;22662;-58
2024/01/24 05:16:52;;;;;;;2.50;2.00;;;22.50;50.30;;;;;;222494;1264;24230;-57
2024/01/24 05:21:56;;;;;;;4.30;1.90;;;22.70;49.80;;;;;;222543;1262;24167;-58
2024/01/24 05:27:01;;;;;;;2.20;1.90;;;22.80;49.40;;;;;;222268;1261;25446;-58
2024/01/24 05:32:06;;;;;;;2.60;1.90;;;23.10;49.30;;;;;;222364;1260;22536;-58
2024/01/24 05:37:10;;;;;;;2.20;1.60;;;23.00;49.00;;;;;;222422;1264;22607;-58
2024/01/24 05:42:18;;;;;;;1.90;1.70;;;23.00;49.10;;;;;;221707;1269;25466;-57
2024/01/24 05:47:22;;;;;;;2.70;1.40;;;22.90;49.20;;;;;;220402;1269;615284;-57
2024/01/24 05:52:29;;;;;;;1.60;1.50;;;22.90;49.30;;;;;;221141;1267;22561;-57
2024/01/24 05:57:35;;;;;;;2.20;1.60;;;22.80;49.30;;;;;;220904;1271;24311;-58
2024/01/24 06:02:40;;;;;;;1.70;1.50;;;22.60;49.90;;;;;;221015;1274;24290;-59
2024/01/24 06:07:44;;;;;;;1.70;1.40;;;22.50;50.10;;;;;;221894;1265;23879;-58
2024/01/24 06:12:52;;;;;;;1.80;1.40;;;22.60;49.80;;;;;;222226;1265;24192;-58
2024/01/24 06:17:56;;;;;;;1.20;1.10;;;22.60;50.00;;;;;;222079;1268;24355;-57
2024/01/24 06:23:01;;;;;;;1.90;1.50;;;22.50;50.10;;;;;;222341;1268;22513;-58
2024/01/24 06:28:05;;;;;;;1.60;1.50;;;22.50;50.00;;;;;;222396;1262;24972;-58
2024/01/24 06:33:10;;;;;;;1.60;1.50;;;22.50;49.90;;;;;;222285;1265;24245;-58
2024/01/24 06:38:16;;;;;;;1.50;1.40;;;22.60;49.90;;;;;;222005;1263;23216;-58
2024/01/24 06:43:21;;;;;;;1.40;1.30;;;22.60;50.00;;;;;;221379;1261;22569;-58
2024/01/24 06:48:25;;;;;;;2.40;1.30;;;22.60;50.00;;;;;;221599;1270;24326;-53
2024/01/24 06:53:30;;;;;;;2.70;1.30;;;22.50;49.90;;;;;;221656;1264;24212;-56
2024/01/24 06:58:37;;;;;;;1.50;1.40;;;22.40;50.50;;;;;;221346;1255;24254;-55
2024/01/24 07:03:41;;;;;;;1.50;1.40;;;22.60;50.50;;;;;;221801;1268;25470;-54
2024/01/24 07:08:46;;;;;;;3.10;1.70;;;22.80;50.30;;;;;;221822;1261;25254;-55
2024/01/24 07:13:53;;;;;;;2.40;1.30;;;23.00;50.20;;;;;;222040;1256;24029;-54
2024/01/24 07:18:58;;;;;;;5.50;1.40;;;23.20;49.90;;;;;;222166;1252;24267;-48
2024/01/24 07:24:04;;;;;;;2.00;1.50;;;23.30;50.10;;;;;;221723;1260;24194;-53
2024/01/24 07:29:09;;;;;;;2.90;1.30;;;23.30;50.20;;;;;;221812;1253;25327;-54
2024/01/24 07:34:15;;;;;;;6.20;1.40;;;23.30;49.90;;;;;;221615;1260;23303;-54
2024/01/24 07:39:19;;;;;;;2.40;1.10;;;23.20;50.20;;;;;;222405;1261;25545;-52
2024/01/24 07:44:24;;;;;;;7.70;1.30;;;23.30;50.30;;;;;;221908;1268;22725;-50
2024/01/24 07:49:33;;;;;;;2.80;1.40;;;23.20;50.70;;;;;;222067;1247;22729;-53
2024/01/24 07:54:43;;;;;;;4.60;1.20;;;23.10;51.20;;;;;;222436;1262;22516;-53
2024/01/24 07:59:48;;;;;;;4.30;1.40;;;23.10;50.80;;;;;;222382;1262;22582;-54
2024/01/24 08:04:53;;;;;;;6.80;1.20;;;22.90;51.00;;;;;;221748;1260;24195;-54
2024/01/24 08:09:57;;;;;;;3.50;1.50;;;22.90;51.00;;;;;;230178;1262;22145;-55
2024/01/24 08:15:05;;;;;;;3.90;1.40;;;22.90;50.50;;;;;;223743;1260;23974;-53
2024/01/24 08:20:10;;;;;;;4.60;1.40;;;22.90;49.60;;;;;;223071;1259;24295;-55
2024/01/24 08:25:14;;;;;;;4.10;1.40;;;22.70;50.10;;;;;;222522;1261;22515;-54
2024/01/24 08:30:19;;;;;;;2.10;1.30;;;22.60;50.40;;;;;;222130;1266;23105;-55
2024/01/24 08:35:23;;;;;;;3.00;0.90;;;22.80;50.20;;;;;;222163;1261;24400;-51
2024/01/24 08:40:28;;;;;;;1.40;1.30;;;22.90;50.00;;;;;;222288;1250;22539;-53
2024/01/24 08:45:32;;;;;;;3.60;1.50;;;23.10;49.70;;;;;;222692;1253;22772;-53
2024/01/24 08:50:38;;;;;;;3.40;1.20;;;23.00;49.50;;;;;;222282;1266;23002;-53
2024/01/24 08:55:43;;;;;;;1.30;1.00;;;23.10;49.50;;;;;;222353;1262;25216;-55
2024/01/24 09:00:51;;;;;;;1.60;1.00;;;23.00;49.70;;;;;;222366;1263;22574;-57
2024/01/24 09:05:56;;;;;;;5.00;1.10;;;22.90;49.90;;;;;;222321;1262;22636;-55
2024/01/24 09:11:00;;;;;;;2.10;1.00;;;22.90;49.60;;;;;;222230;1264;24203;-53
2024/01/24 09:16:04;;;;;;;1.20;1.10;;;22.90;49.50;;;;;;222211;1268;23014;-50
2024/01/24 09:21:09;;;;;;;2.20;1.00;;;23.00;49.10;;;;;;222129;1264;22538;-47
2024/01/24 09:26:13;;;;;;;1.40;0.90;;;22.90;49.40;;;;;;222445;1267;22647;-50
2024/01/24 09:31:18;;;;;;;1.40;1.00;;;22.80;49.60;;;;;;222238;1244;24337;-49
2024/01/24 09:36:23;;;;;;;1.60;0.90;;;22.70;49.30;;;;;;222558;1265;23015;-49
2024/01/24 09:41:34;;;;;;;1.00;0.90;;;22.60;49.40;;;;;;222154;1253;23936;-49
2024/01/24 09:46:48;;;;;;;1.10;1.00;;;22.60;49.50;;;;;;222210;1265;25080;-46
2024/01/24 09:51:53;;;;;;;1.70;1.00;;;22.70;49.60;;;;;;222175;1264;25434;-49
2024/01/24 09:56:59;;;;;;;2.00;1.30;;;22.90;49.20;;;;;;222143;1262;22532;-49
2024/01/24 10:02:06;;;;;;;1.20;1.10;;;22.90;50.10;;;;;;222181;1262;22527;-49
2024/01/24 10:07:12;;;;;;;1.00;0.70;;;23.10;49.80;;;;;;222282;1264;22520;-47
2024/01/24 10:12:16;;;;;;;0.90;0.80;;;23.20;49.30;;;;;;222379;1256;24180;-49
2024/01/24 10:17:21;;;;;;;1.20;1.10;;;23.30;48.60;;;;;;222414;1267;25802;-49
2024/01/24 10:22:26;;;;;;;1.50;1.00;;;23.10;48.60;;;;;;222653;1262;22784;-52
2024/01/24 10:27:34;;;;;;;1.40;0.90;;;23.10;48.60;;;;;;222253;1266;24742;-47
2024/01/24 10:32:48;;;;;;;1.50;1.10;;;23.00;48.70;;;;;;222368;1260;25507;-47
2024/01/24 10:37:55;;;;;;;1.20;1.10;;;23.00;48.70;;;;;;222673;1264;22662;-47
2024/01/24 10:43:08;;;;;;;1.30;0.80;;;23.00;49.20;;;;;;222666;1265;22523;-46
2024/01/24 10:48:12;;;;;;;1.50;1.00;;;22.90;49.20;;;;;;222677;1260;22537;-47
2024/01/24 10:53:19;;;;;;;0.70;0.70;;;23.10;48.30;;;;;;222473;1256;25492;-50
2024/01/24 10:58:25;;;;;;;0.70;0.70;;;23.10;48.50;;;;;;222760;1265;22544;-46
2024/01/24 11:03:29;;;;;;;0.90;0.80;;;23.00;48.70;;;;;;222916;1259;22528;-48
2024/01/24 11:08:51;;;;;;;0.70;0.70;;;23.00;48.50;;;;;;222692;1262;22538;-48
2024/01/24 11:13:58;;;;;;;0.90;0.90;;;22.90;48.50;;;;;;221618;1254;22895;-49
2024/01/24 11:19:22;;;;;;;1.50;0.90;;;22.70;49.10;;;;;;221451;1268;22542;-48
2024/01/24 11:24:39;;;;;;;0.90;0.80;;;22.70;49.40;;;;;;221337;1250;24315;-48
2024/01/24 11:29:45;;;;;;;1.70;0.80;;;22.80;48.80;;;;;;221585;1269;25423;-51
2024/01/24 11:35:28;;;;;;;1.00;0.90;;;23.00;48.80;;;;;;221600;1268;26533;-47
2024/01/24 11:40:37;;;;;;;0.80;0.80;;;23.10;48.50;;;;;;222759;1260;25333;-50
2024/01/24 11:45:42;;;;;;;1.70;0.80;;;23.20;48.40;;;;;;221241;1268;22530;-51
2024/01/24 11:50:56;;;;;;;0.90;0.90;;;23.20;48.50;;;;;;221130;1265;22542;-50
2024/01/24 11:56:02;;;;;;;0.70;0.70;;;23.10;48.50;;;;;;221411;1268;22530;-51
2024/01/24 12:01:11;;;;;;;1.20;0.80;;;23.00;48.70;;;;;;221625;1268;22515;-53
2024/01/24 12:06:21;;;;;;;0.70;0.70;;;22.90;48.90;;;;;;222373;1259;25363;-53
2024/01/24 12:11:26;;;;;;;1.00;0.70;;;22.90;48.60;;;;;;222819;1260;24215;-52
2024/01/24 12:16:32;;;;;;;0.70;0.60;;;23.00;48.60;;;;;;222685;1265;24126;-51
2024/01/24 12:21:37;;;;;;;0.80;0.70;;;23.00;48.50;;;;;;222698;1267;25417;-56
2024/01/24 12:26:42;;;;;;;1.20;0.90;;;23.00;48.20;;;;;;222447;1260;25145;-55
2024/01/24 12:31:50;;;;;;;0.90;0.90;;;22.90;48.80;;;;;;222525;1264;22536;-47
2024/01/24 12:37:00;;;;;;;0.60;0.60;;;22.90;49.40;;;;;;222535;1267;25231;-51
2024/01/24 12:42:05;;;;;;;2.60;0.90;;;22.80;48.90;;;;;;222728;1260;22603;-48
2024/01/24 12:47:09;;;;;;;1.00;0.90;;;23.10;48.90;;;;;;222691;1264;24308;-50
2024/01/24 12:52:14;;;;;;;1.10;0.80;;;23.30;48.30;;;;;;222699;1251;25818;-52
2024/01/24 12:57:19;;;;;;;1.10;0.90;;;23.50;48.60;;;;;;222623;1267;22512;-52
2024/01/24 13:02:24;;;;;;;0.80;0.80;;;23.60;48.00;;;;;;222471;1247;22546;-53
2024/01/24 13:07:29;;;;;;;1.70;1.10;;;23.70;47.80;;;;;;222193;1249;25162;-54
2024/01/24 13:12:33;;;;;;;1.00;0.90;;;23.80;47.40;;;;;;222683;1267;22520;-53
2024/01/24 13:17:40;;;;;;;0.70;0.70;;;23.60;47.50;;;;;;222830;1267;24340;-54
2024/01/24 13:22:44;;;;;;;0.90;0.80;;;23.60;47.70;;;;;;222615;1266;25772;-52
2024/01/24 13:27:49;;;;;;;1.30;1.20;;;23.60;47.40;;;;;;222744;1259;23911;-53
2024/01/24 13:32:53;;;;;;;1.20;1.10;;;23.50;47.70;;;;;;222516;1265;23895;-53
2024/01/24 13:37:58;;;;;;;0.70;0.70;;;23.60;47.50;;;;;;223128;1262;24225;-51
2024/01/24 13:43:03;;;;;;;1.00;0.80;;;23.50;47.40;;;;;;222530;1262;22522;-53
2024/01/24 13:48:10;;;;;;;2.00;1.00;;;23.50;47.60;;;;;;222485;1267;25411;-52
2024/01/24 13:53:14;;;;;;;1.80;1.10;;;23.70;47.40;;;;;;222656;1265;26518;-55
2024/01/24 13:58:20;;;;;;;1.30;0.90;;;23.70;47.10;;;;;;222326;1265;22632;-52
2024/01/24 14:03:25;;;;;;;3.40;0.90;;;23.60;47.40;;;;;;222455;1260;25330;-53
2024/01/24 14:08:31;;;;;;;2.20;1.20;;;23.50;47.70;;;;;;222699;1267;23227;-52
2024/01/24 14:13:35;;;;;;;1.10;0.90;;;23.20;47.90;;;;;;222412;1263;24371;-52
2024/01/24 14:18:40;;;;;;;1.70;1.10;;;23.10;47.80;;;;;;222287;1266;22602;-51
2024/01/24 14:23:45;;;;;;;1.40;1.10;;;23.20;47.60;;;;;;222701;1266;22663;-53
2024/01/24 14:28:49;;;;;;;1.60;1.20;;;23.10;47.80;;;;;;222225;1256;22518;-54
2024/01/24 14:33:54;;;;;;;2.30;1.10;;;23.00;48.60;;;;;;222663;1265;22675;-52
2024/01/24 14:38:58;;;;;;;8.90;1.40;;;23.00;50.10;;;;;;222251;1260;22517;-50
2024/01/24 14:44:02;;;;;;;5.10;1.20;;;22.90;51.20;;;;;;222433;1266;22585;-49
2024/01/24 14:49:09;;;;;;;4.00;1.30;;;22.90;52.00;;;;;;222416;1265;22632;-51
2024/01/24 14:54:14;;;;;;;4.50;1.50;;;22.90;52.40;;;;;;222294;1267;22562;-50
2024/01/24 14:59:19;;;;;;;1.90;1.30;;;22.80;53.40;;;;;;222701;1266;24195;-54
2024/01/24 15:04:23;;;;;;;2.40;1.40;;;22.70;53.20;;;;;;222367;1260;24210;-53
2024/01/24 15:09:31;;;;;;;4.20;1.50;;;22.70;52.00;;;;;;222498;1252;23931;-50
2024/01/24 15:14:38;;;;;;;1.60;1.10;;;23.00;51.30;;;;;;222150;1266;24184;-50
2024/01/24 15:19:45;;;;;;;1.80;1.20;;;23.20;50.50;;;;;;222395;1267;25328;-51
2024/01/24 15:24:56;;;;;;;1.50;1.20;;;23.40;49.60;;;;;;222012;1263;25397;-54
2024/01/24 15:30:01;;;;;;;2.70;1.10;;;23.40;49.70;;;;;;222353;1266;25268;-50
2024/01/24 15:35:07;;;;;;;2.80;1.10;;;23.40;49.00;;;;;;222186;1260;24279;-51
2024/01/24 15:40:16;;;;;;;2.20;1.40;;;23.30;49.00;;;;;;222960;1264;22520;-53
2024/01/24 15:45:24;;;;;;;2.10;1.20;;;23.10;48.70;;;;;;222889;1264;22522;-47
2024/01/24 15:50:29;;;;;;;1.40;1.20;;;23.00;49.10;;;;;;222303;1256;22527;-48
2024/01/24 15:55:34;;;;;;;5.00;1.70;;;23.00;49.40;;;;;;222470;1253;24372;-46
2024/01/24 16:00:38;;;;;;;5.10;1.50;;;23.00;49.10;;;;;;222286;1265;26178;-46
2024/01/24 16:05:45;;;;;;;5.80;1.40;;;23.00;49.20;;;;;;222134;1268;23893;-45
2024/01/24 16:10:50;;;;;;;3.60;1.60;;;23.00;49.40;;;;;;222399;1260;22530;-47
2024/01/24 16:15:54;;;;;;;7.70;2.00;;;23.00;49.60;;;;;;222330;1260;24199;-44
2024/01/24 16:21:06;;;;;;;4.50;1.80;;;23.00;50.20;;;;;;222279;1260;22541;-45
2024/01/24 16:26:14;;;;;;;7.10;2.00;;;23.00;50.60;;;;;;222605;1260;22556;-45
2024/01/24 16:31:21;;;;;;;15.40;6.20;;;22.90;50.60;;;;;;222267;1260;24278;-45
2024/01/24 16:36:25;;;;;;;12.50;4.00;;;22.90;50.70;;;;;;222497;1265;23345;-45
2024/01/24 16:41:30;;;;;;;9.00;3.60;;;22.80;52.10;;;;;;222417;1265;25386;-44
2024/01/24 16:46:37;;;;;;;9.80;3.80;;;22.80;52.20;;;;;;222736;1268;25251;-49
2024/01/24 16:51:44;;;;;;;8.40;3.40;;;22.70;52.40;;;;;;222081;1253;24203;-51
2024/01/24 16:56:48;;;;;;;12.00;4.30;;;22.70;52.30;;;;;;222098;1266;22848;-47
2024/01/24 17:01:54;;;;;;;15.00;3.90;;;22.80;52.70;;;;;;226141;1263;26526;-47
2024/01/24 17:07:02;;;;;;;9.10;3.30;;;22.80;53.10;;;;;;223003;1260;24197;-55
2024/01/24 17:12:09;;;;;;;8.70;3.10;;;22.80;53.70;;;;;;222689;1266;24308;-56
2024/01/24 17:17:14;;;;;;;7.80;3.00;;;22.70;53.80;;;;;;222374;1249;24015;-48
2024/01/24 17:22:18;;;;;;;8.50;2.70;;;22.70;53.20;;;;;;222263;1265;22508;-52
2024/01/24 17:27:22;;;;;;;8.10;3.40;;;22.70;53.50;;;;;;222038;1258;23038;-52
2024/01/24 17:32:30;;;;;;;9.30;3.40;;;22.60;53.10;;;;;;222563;1266;25395;-51
2024/01/24 17:37:35;;;;;;;9.90;3.50;;;22.60;53.40;;;;;;222206;1266;22599;-54
2024/01/24 17:42:40;;;;;;;11.20;3.90;;;22.60;53.50;;;;;;222543;1266;23914;-49
2024/01/24 17:47:45;;;;;;;14.30;3.70;;;22.60;52.90;;;;;;219910;1264;3399978;-50
2024/01/24 17:52:50;;;;;;;9.20;4.00;;;22.60;53.00;;;;;;222086;1264;22526;-52
2024/01/24 17:57:57;;;;;;;14.80;4.00;;;22.50;53.00;;;;;;222136;1268;24192;-49
2024/01/24 18:03:03;;;;;;;13.50;4.40;;;22.80;52.20;;;;;;222673;1265;22526;-50
2024/01/24 18:08:08;;;;;;;15.20;4.30;;;23.10;51.80;;;;;;222517;1265;22565;-50
2024/01/24 18:13:12;;;;;;;12.80;3.50;;;23.30;51.60;;;;;;222145;1261;24221;-52
2024/01/24 18:18:17;;;;;;;15.60;3.50;;;23.50;50.60;;;;;;222662;1267;22640;-55
2024/01/24 18:23:21;;;;;;;12.80;4.20;;;23.50;51.10;;;;;;222103;1264;23636;-52
2024/01/24 18:28:26;;;;;;;14.70;3.90;;;23.40;50.90;;;;;;222268;1267;22597;-52
2024/01/24 18:33:30;;;;;;;18.70;5.20;;;23.30;51.50;;;;;;222445;1266;22661;-54
2024/01/24 18:38:36;;;;;;;11.90;4.20;;;23.20;51.60;;;;;;222400;1261;24216;-50
2024/01/24 18:43:40;;;;;;;10.90;4.80;;;23.20;51.40;;;;;;222974;1263;22536;-55
2024/01/24 18:48:45;;;;;;;12.10;4.20;;;23.10;53.00;;;;;;222090;1264;25157;-52
2024/01/24 18:53:50;;;;;;;9.90;3.90;;;23.00;53.90;;;;;;222433;1264;25366;-56
2024/01/24 18:58:54;;;;;;;17.40;4.30;;;23.00;53.50;;;;;;222374;1262;22518;-59
2024/01/24 19:03:59;;;;;;;6.80;3.60;;;22.90;53.20;;;;;;222482;1256;22538;-57
2024/01/24 19:09:04;;;;;;;17.30;4.70;;;22.90;53.20;;;;;;222381;1263;23348;-56
2024/01/24 19:14:09;;;;;;;19.90;4.00;;;22.80;53.50;;;;;;222353;1267;24238;-57
2024/01/24 19:19:15;;;;;;;10.10;3.80;;;22.80;52.80;;;;;;222392;1261;22785;-56
2024/01/24 19:24:22;;;;;;;10.60;3.90;;;22.80;52.50;;;;;;222538;1267;25357;-58
2024/01/24 19:29:28;;;;;;;9.80;3.50;;;22.70;52.40;;;;;;222306;1268;24192;-57
2024/01/24 19:34:34;;;;;;;8.10;3.20;;;22.70;52.30;;;;;;222639;1268;22602;-56
2024/01/24 19:39:42;;;;;;;13.30;3.70;;;22.70;52.00;;;;;;222298;1267;24721;-56
2024/01/24 19:44:53;;;;;;;8.00;3.90;;;22.70;51.70;;;;;;222196;1265;22602;-56
2024/01/24 19:50:00;;;;;;;11.60;3.40;;;22.60;52.00;;;;;;222910;1267;24197;-57
2024/01/24 19:55:06;;;;;;;9.40;3.00;;;22.60;51.70;;;;;;222182;1267;24243;-57
2024/01/24 20:00:12;;;;;;;8.30;3.30;;;22.60;51.80;;;;;;223989;1254;24413;-57
2024/01/24 20:05:17;;;;;;;10.80;3.70;;;22.80;51.80;;;;;;222261;1267;22540;-56
2024/01/24 20:10:21;;;;;;;6.70;2.80;;;23.00;52.00;;;;;;222368;1249;23886;-59
2024/01/24 20:15:25;;;;;;;9.40;3.80;;;23.00;51.20;;;;;;222114;1264;25300;-57
2024/01/24 20:20:30;;;;;;;7.30;3.10;;;23.10;51.70;;;;;;222575;1260;25144;-57
2024/01/24 20:25:34;;;;;;;9.10;3.10;;;23.20;51.40;;;;;;222756;1263;22541;-57
2024/01/24 20:30:44;;;;;;;9.90;3.00;;;23.30;51.40;;;;;;222591;1254;27663;-58
2024/01/24 20:35:53;;;;;;;8.40;2.80;;;23.30;51.40;;;;;;222772;1266;24382;-58
2024/01/24 20:41:00;;;;;;;8.90;3.30;;;23.20;51.40;;;;;;222585;1261;22912;-58
2024/01/24 20:46:06;;;;;;;12.80;3.10;;;23.10;52.70;;;;;;222360;1267;25317;-59
2024/01/24 20:51:11;;;;;;;7.70;2.70;;;23.10;52.20;;;;;;222724;1267;22627;-58
2024/01/24 20:56:16;;;;;;;7.80;2.40;;;23.00;52.20;;;;;;221617;1272;25601;-59
2024/01/24 21:01:20;;;;;;;7.10;2.40;;;22.90;52.20;;;;;;221615;1271;25296;-60
2024/01/24 21:06:27;;;;;;;6.40;2.60;;;22.90;52.20;;;;;;221371;1264;24225;-59
2024/01/24 21:11:32;;;;;;;10.40;2.70;;;22.80;52.00;;;;;;221177;1271;25234;-56
2024/01/24 21:16:38;;;;;;;6.60;2.30;;;22.80;52.10;;;;;;221367;1270;24231;-58
2024/01/24 21:21:43;;;;;;;5.50;2.40;;;22.80;51.60;;;;;;221381;1268;25249;-57
2024/01/24 21:26:48;;;;;;;7.50;2.80;;;22.90;51.50;;;;;;222125;1253;25353;-59
2024/01/24 21:31:54;;;;;;;8.60;2.90;;;22.80;51.50;;;;;;222142;1264;22524;-60
2024/01/24 21:37:00;;;;;;;7.70;2.40;;;22.80;55.90;;;;;;222335;1267;22547;-61
2024/01/24 21:42:04;;;;;;;3.40;2.10;;;22.90;54.80;;;;;;222262;1254;22640;-53
2024/01/24 21:47:08;;;;;;;6.80;2.40;;;23.10;53.80;;;;;;222149;1264;24382;-49
2024/01/24 21:52:15;;;;;;;8.10;2.80;;;23.20;53.40;;;;;;222333;1260;24357;-52
2024/01/24 21:57:19;;;;;;;5.80;2.10;;;23.30;53.50;;;;;;222303;1264;23767;-53
2024/01/24 22:02:24;;;;;;;10.40;2.60;;;23.40;53.20;;;;;;222530;1266;25278;-50
2024/01/24 22:07:30;;;;;;;6.10;2.30;;;23.30;53.50;;;;;;222462;1266;24194;-51
2024/01/24 22:12:36;;;;;;;6.90;2.30;;;23.20;53.70;;;;;;222527;1261;22545;-51
2024/01/24 22:17:41;;;;;;;5.40;2.20;;;23.10;53.50;;;;;;222271;1261;22527;-51
2024/01/24 22:22:46;;;;;;;8.40;2.20;;;23.10;53.90;;;;;;222543;1254;25313;-52
2024/01/24 22:27:51;;;;;;;3.70;1.80;;;23.10;53.60;;;;;;222381;1260;22555;-53
2024/01/24 22:32:56;;;;;;;5.10;2.00;;;23.00;53.80;;;;;;222170;1257;22534;-54
2024/01/24 22:38:00;;;;;;;6.60;2.70;;;23.00;53.60;;;;;;222644;1266;24955;-49
2024/01/24 22:43:05;;;;;;;3.80;1.80;;;22.90;53.80;;;;;;222448;1253;22528;-50
2024/01/24 22:48:11;;;;;;;5.40;1.90;;;22.80;53.70;;;;;;222293;1261;24193;-50
2024/01/24 22:53:16;;;;;;;4.10;2.10;;;22.80;53.40;;;;;;222718;1257;25264;-52
2024/01/24 22:58:20;;;;;;;5.40;2.00;;;22.80;53.50;;;;;;222177;1257;22534;-48
2024/01/24 23:03:25;;;;;;;4.20;1.90;;;22.70;54.00;;;;;;222715;1266;24225;-50
2024/01/24 23:08:30;;;;;;;4.10;2.00;;;22.70;53.60;;;;;;222450;1261;26500;-62
2024/01/24 23:13:34;;;;;;;7.70;2.10;;;22.70;53.40;;;;;;222477;1264;22539;-62
2024/01/24 23:18:39;;;;;;;3.40;1.40;;;22.60;53.50;;;;;;222556;1266;24263;-61
2024/01/24 23:23:43;;;;;;;2.40;1.30;;;22.60;53.30;;;;;;222173;1259;24228;-62
2024/01/24 23:28:47;;;;;;;4.10;1.90;;;22.60;53.40;;;;;;222521;1250;22552;-62
2024/01/24 23:33:52;;;;;;;2.60;1.70;;;22.60;53.10;;;;;;222426;1267;22622;-61
2024/01/24 23:38:57;;;;;;;4.00;1.90;;;22.80;52.70;;;;;;222323;1267;25236;-61
2024/01/24 23:44:02;;;;;;;3.20;1.70;;;22.90;52.50;;;;;;222222;1262;25090;-61
2024/01/24 23:49:06;;;;;;;3.70;1.60;;;23.10;52.30;;;;;;222412;1263;24248;-63
2024/01/24 23:54:12;;;;;;;2.20;1.40;;;23.10;52.00;;;;;;222386;1264;25522;-63
2024/01/24 23:59:16;;;;;;;5.00;2.10;;;23.10;51.60;;;;;;222047;1266;23519;-62
